Lake Isabella, CA

8:37 PM PDT on March 26, 2017 (GMT -0700)
Lake Isabella | | Change Station
Active Advisory: High Wind Warning

Elev 3258 ft 35.60 °N, 118.44 °W | Updated 13 seconds ago

Partly Cloudy
Partly Cloudy
51.6 °F
Feels Like 51.6 °F
N
0.0
Wind Variable Wind from SW
Gusts 0.0 mph

Today
High -- | Low -- °F
--% Chance of Precip.
Yesterday
High -- | Low -- °F
Precip. -- in
Pressure 30.08 in
Visibility 10.0 miles
Clouds Mostly Cloudy 2300 ft
Overcast 3000 ft
Dew Point 41 °F
Humidity 66%
Rainfall 0.00 in
Snow Depth Not available.
6:48 AM 7:10 PM
Waning Crescent, 1% visible
METAR KTSP 270315Z AUTO 31012KT 10SM BKN023 OVC030 08/05 A3008 RMK AO2
Pressure 30.08 in
Visibility 10.0 miles
Clouds Mostly Cloudy 2300 ft
Overcast 3000 ft
Dew Point 41 °F
Humidity 66%
Rainfall 0.00 in
Snow Depth Not available.
6:48 AM 7:10 PM
Waning Crescent, 1% visible
METAR KTSP 270315Z AUTO 31012KT 10SM BKN023 OVC030 08/05 A3008 RMK AO2

Get Your Daily Forecast Email!

Thanks for signing up!

Be on the lookout for a verification email in your inbox.

You'll start receiving severe weather alerts in your inbox..

×

10-Day Weather Forecast

Almanac

Astronomy

Mar. 26, 2017 Rise Set
Actual Time
Civil Twilight
Nautical Twilight
Astronomical Twilight
Moon
Length of Visible Light
Length of Day
Tomorrow will be .
, % of the Moon is Illuminated

Today's Extremes

State Highs State Lows

Community

WunderPhotos

Upload Photos

1,962,540 photos uploaded!

WunderBlog® & News

Nearby

Air Quality

  Air Quality AQ Index Pollutant
Not available.

Snow Depth

Station Depth Elevation

Earthquake Activity

City Distance Mag. Time & Date
Minimum magnitude displayed is 2.5.

Earthquake Activity

City Distance Mag. Time & Date
Minimum magnitude displayed is 2.5.

Coastal Water Temperatures

Place Temperature

Stations

Nearby Weather Stations

Station Location Temp. Windchill Dew Point Humidity Wind Precip. Elev Updated Type
                   

Watches & Warnings

High Wind Warning
Issued: 12:57 PM PDT Mar. 26, 2017 – National Weather Service

... High Wind Warning in effect from 8 am to 11 PM PDT Monday...

The National Weather Service in Hanford has issued a High Wind
Warning, which is in effect from 8 am to 11 PM PDT Monday.

* Winds... northwest 30 to 40 mph with gusts up to 60 mph.

* Timing... winds will increase Monday morning with the strongest
gust potential occurring in the afternoon.

* Impacts... damaging winds will blow down trees and power lines.
Widespread power outages are expected. Travel will be
difficult, especially for high profile vehicles.

Precautionary/preparedness actions...

A High Wind Warning means a hazardous high wind event is expected
or occurring. Sustained wind speeds of at least 40 mph or gusts
of 58 mph or more can lead to property damage.